Home > Products > Valid Products > TAF

000
FTPA31 PHFO 301459 AAA
TAFHNL
TAF AMD
PHNL 301459Z 3015/0118 06009KT P6SM FEW030 SCT050
     FM302000 07012G20KT P6SM FEW030 SCT050
     FM010500 06010KT P6SM FEW030 SCT050=



000
FTPA31 PHFO 301136
TAFHNL
TAF
PHNL 301136Z 3012/0118 06009KT P6SM FEW030 SCT050
     FM302000 07012G20KT P6SM FEW030 SCT050
     FM010500 06010KT P6SM FEW030 SCT050=



000
FTPA31 PHFO 300907 AAA
TAFHNL
TAF AMD
PHNL 300907Z 3009/0112 06010KT P6SM FEW030 SCT050
     FM302000 07012G20KT P6SM FEW030 SCT050
     FM010500 06010KT P6SM FEW030 SCT050=



000
FTPA31 PHFO 300537
TAFHNL
TAF
PHNL 300537Z 3006/0112 07010G20KT P6SM FEW030 SCT050
     FM300700 06008KT P6SM FEW030 SCT050
     FM302000 07012G20KT P6SM FEW030 SCT050
     FM010500 06010KT P6SM FEW030 SCT050=



000
FTPA31 PHFO 300457 AAB
TAFHNL
TAF AMD
PHNL 300457Z 3005/0106 07010G20KT P6SM FEW030 SCT050
     FM300700 06008KT P6SM SCT030 SCT050
     FM302000 06012G20KT P6SM SCT030 SCT050
     FM010500 06010KT P6SM SCT030 SCT050=



000
FTPA31 PHFO 300258 AAA
TAFHNL
TAF AMD
PHNL 300258Z 3003/0106 06010G20KT P6SM FEW030 SCT050
     FM300600 06008KT P6SM SCT030 SCT050
     FM302000 06012G20KT P6SM SCT030 SCT050
     FM010500 06010KT P6SM SCT030 SCT050=



000
FTPA31 PHFO 292328
TAFHNL
TAF
PHNL 292328Z 3000/0106 10012G20KT P6SM FEW030 SCT050 SCT150
     FM300600 08008KT P6SM SCT030 SCT050
     FM302000 06012G20KT P6SM SCT030 SCT050
     FM010500 06010KT P6SM SCT030 SCT050=



000
FTPA31 PHFO 292056 AAA
TAFHNL
TAF AMD
PHNL 292056Z 2921/3024 07012G20KT P6SM FEW030 SCT050
     FM300600 07008KT P6SM SCT030 SCT050
     FM302000 06012G20KT P6SM SCT030 SCT050=



000
FTPA31 PHFO 291727
TAFHNL
TAF
PHNL 291727Z 2918/3024 06008KT P6SM FEW030 SCT050 BKN080
     FM292000 08012G20KT P6SM FEW030 SCT050
     FM300600 07008KT P6SM SCT030 SCT050
     FM302000 06012G20KT P6SM SCT030 SCT050=



000
FTPA31 PHFO 291140
TAFHNL
TAF
PHNL 291140Z 2912/3018 07008KT P6SM FEW030 SCT050
     FM292100 07013G20KT P6SM FEW030 SCT050
     FM300600 07008KT P6SM SCT030 BKN050=



000
FTPA31 PHFO 290531
TAFHNL
TAF
PHNL 290531Z 2906/3012 06012G20KT P6SM FEW030 SCT060
     FM290900 06009KT P6SM SCT030 BKN060
     FM292100 06012G20KT P6SM FEW030 SCT060
     FM300900 06009KT P6SM SCT030 BKN060=



000
FTPA31 PHFO 290306 AAA
TAFHNL
TAF AMD
PHNL 290306Z 2903/3006 08015G23KT P6SM FEW025 SCT050
     FM290800 07010KT P6SM FEW025 SCT050
     FM292000 07013G22KT P6SM FEW025 FEW050=



000
FTPA31 PHFO 282340
TAFHNL
TAF
PHNL 282340Z 2900/3006 08015G23KT P6SM FEW025 SCT050
     FM290800 07010KT P6SM FEW025 SCT050
     FM292000 07013G22KT P6SM FEW025 FEW050=



000
FTPA31 PHFO 282340
TAFHNL
TAF
PHNL 282340Z 2900/3006 08015G23KT P6SM FEW025 SCT050
     FM290800 07010KT P6SM FEW025 SCT050
     FM292000 07013G22KT P6SM FEW025 FEW050=



000
FTPA31 PHFO 282119 AAA
TAFHNL
TAF AMD
PHNL 282119Z 2821/2924 08015G25KT P6SM FEW025 FEW050
     FM290600 08010G20KT P6SM SCT025 SCT050
     FM290900 07010KT P6SM SCT025 SCT050
     FM292000 07013G22KT P6SM FEW025 FEW050=



000
FTPA31 PHFO 281737
TAFHNL
TAF
PHNL 281737Z 2818/2924 07010KT P6SM SCT025 SCT050
     FM282000 08015G25KT P6SM FEW025 FEW050
     FM290600 08010G20KT P6SM SCT025 SCT050
     FM290900 07010KT P6SM SCT025 SCT050
     FM292000 07013G22KT P6SM FEW025 FEW050=



000
FTPA31 PHFO 281737
TAFHNL
TAF
PHNL 281737Z 2818/2924 07010KT P6SM SCT025 SCT050
     FM282000 08015G25KT P6SM FEW025 FEW050
     FM290600 08010G20KT P6SM SCT025 SCT050
     FM290900 07010KT P6SM SCT025 SCT050
     FM292000 07013G22KT P6SM FEW025 FEW050=



000
FTPA31 PHFO 281500 AAA
TAFHNL
TAF AMD
PHNL 281500Z 2815/2918 06010KT P6SM SCT025 SCT050
     FM282000 06015G25KT P6SM FEW025 FEW050
     FM290600 06010G20KT P6SM SCT025 SCT050
     FM291100 06012KT P6SM SCT025 SCT050=



000
FTPA31 PHFO 281138
TAFHNL
TAF
PHNL 281138Z 2812/2918 06010KT P6SM SCT025 SCT050
     FM282000 06015G25KT P6SM FEW025 FEW050
     FM290600 06010G20KT P6SM SCT025 SCT050
     FM291100 06012KT P6SM SCT025 SCT050=



000
FTPA31 PHFO 281138
TAFHNL
TAF
PHNL 281138Z 2812/2918 06010KT P6SM SCT025 SCT050
     FM282000 06015G25KT P6SM FEW025 FEW050
     FM290600 06010G20KT P6SM SCT025 SCT050
     FM291100 06012KT P6SM SCT025 SCT050=



000
FTPA31 PHFO 280902 AAA
TAFHNL
TAF AMD
PHNL 280902Z 2809/2912 06012KT P6SM SCT025 SCT050
     FM282000 06015G25KT P6SM FEW025 FEW050
     FM290600 06010G20KT P6SM SCT025 SCT050
     FM291100 06012KT P6SM SCT025 SCT050=



000
FTPA31 PHFO 280902 AAA
TAFHNL
TAF AMD
PHNL 280902Z 2809/2912 06012KT P6SM SCT025 SCT050
     FM282000 06015G25KT P6SM FEW025 FEW050
     FM290600 06010G20KT P6SM SCT025 SCT050
     FM291100 06012KT P6SM SCT025 SCT050=



000
FTPA31 PHFO 280539
TAFHNL
TAF
PHNL 280539Z 2806/2912 06012G20KT P6SM FEW025 SCT045
     FM281100 06012KT P6SM SCT025 SCT045
     FM282000 06015G25KT P6SM FEW025 FEW045
     FM290600 06010G20KT P6SM SCT025 SCT045
     FM291100 06012KT P6SM SCT025 SCT045=



000
FTPA31 PHFO 280300 AAA
TAFHNL
TAF AMD
PHNL 280300Z 2803/2906 06014G23KT P6SM FEW025 SCT045
     FM280600 06011KT P6SM VCSH FEW025 SCT045
     FM282000 07016G24KT P6SM FEW025 FEW045=



000
FTPA31 PHFO 280300 AAA
TAFHNL
TAF AMD
PHNL 280300Z 2803/2906 06014G23KT P6SM FEW025 SCT045
     FM280600 06011KT P6SM VCSH FEW025 SCT045
     FM282000 07016G24KT P6SM FEW025 FEW045=



000
FTPA31 PHFO 272342
TAFHNL
TAF
PHNL 272342Z 2800/2906 06016G25KT P6SM FEW025 FEW045
     FM280600 06011KT P6SM VCSH FEW025 SCT045
     FM282000 07016G24KT P6SM FEW025 FEW045=



000
FTPA31 PHFO 272342
TAFHNL
TAF
PHNL 272342Z 2800/2906 06016G25KT P6SM FEW025 FEW045
     FM280600 06011KT P6SM VCSH FEW025 SCT045
     FM282000 07016G24KT P6SM FEW025 FEW045=



000
FTPA31 PHFO 272105 AAA
TAFHNL
TAF AMD
PHNL 272105Z 2721/2824 06015G25KT P6SM FEW025 SCT045
     FM280600 06011KT P6SM VCSH FEW025 SCT045
     FM282000 06016G25KT P6SM FEW025 SCT045=



000
FTPA31 PHFO 271743
TAFHNL
TAF
PHNL 271743Z 2718/2824 06014KT P6SM VCSH FEW025 SCT045
     FM272000 06016G25KT P6SM FEW025 SCT045
     FM280600 06011KT P6SM VCSH FEW025 SCT045
     FM282000 06016G25KT P6SM FEW025 SCT045=



    US Dept of Commerce
    National Oceanic and Atmospheric Administration
    National Weather Service
    1325 East West Highway
    Silver Spring, MD 20910
    Page Author: NWS Internet Services Team
Disclaimer
Information Quality
Credits
Glossary
Privacy Policy
Freedom of Information Act (FOIA)
About Us
Career Opportunities